Terminal Aerodrome Forecast
Issued by NWS Duluth, MN

Home | Current Version | Previous Version | Text Only | Print | Product List | Glossary On
Versions: 1 2 3 4 5 6 7 8 9 10 11 12 13 14 15 16 17 18 19 20 21 22 23 24 25 26 27 28
880
FTUS43 KDLH 160540
TAFDLH
TAF
KDLH 160540Z 1606/1706 34013KT P6SM -SN SCT007 BKN010
      TEMPO 1606/1609 6SM -SN OVC007
     FM161000 33010KT P6SM BKN020
     FM161600 31008KT P6SM SCT020
     FM162100 28009KT P6SM SCT100 BKN150
     FM170000 26010KT P6SM BKN080=

USA.gov is the U.S. government's official web portal to all federal, state and local government web resources and services.